sensor_id;sensor_type;location;lat;lon;timestamp;temperature;humidity
45012;DHT22;63444;48.148;11.542;2024-03-23T00:53:30;13.60;95.20
45012;DHT22;63444;48.148;11.542;2024-03-23T00:55:57;13.70;95.20
45012;DHT22;63444;48.148;11.542;2024-03-23T00:58:23;13.70;95.20
45012;DHT22;63444;48.148;11.542;2024-03-23T01:00:50;13.80;95.10
45012;DHT22;63444;48.148;11.542;2024-03-23T01:03:16;13.80;95.00
45012;DHT22;63444;48.148;11.542;2024-03-23T01:05:42;13.80;95.00
45012;DHT22;63444;48.148;11.542;2024-03-23T01:08:07;13.80;94.90
45012;DHT22;63444;48.148;11.542;2024-03-23T01:10:33;13.80;94.90
45012;DHT22;63444;48.148;11.542;2024-03-23T01:13:00;13.80;95.00
45012;DHT22;63444;48.148;11.542;2024-03-23T01:15:27;13.80;95.00
45012;DHT22;63444;48.148;11.542;2024-03-23T01:17:53;13.80;95.00
45012;DHT22;63444;48.148;11.542;2024-03-23T01:20:19;13.80;95.10
45012;DHT22;63444;48.148;11.542;2024-03-23T01:22:44;13.80;95.00
45012;DHT22;63444;48.148;11.542;2024-03-23T01:25:10;13.80;95.00
45012;DHT22;63444;48.148;11.542;2024-03-23T01:27:36;13.80;95.10
45012;DHT22;63444;48.148;11.542;2024-03-23T01:30:02;13.80;95.10
45012;DHT22;63444;48.148;11.542;2024-03-23T01:32:27;13.80;95.20
45012;DHT22;63444;48.148;11.542;2024-03-23T01:34:56;13.80;95.20
45012;DHT22;63444;48.148;11.542;2024-03-23T01:37:22;13.70;95.20
45012;DHT22;63444;48.148;11.542;2024-03-23T01:39:47;13.70;95.30
45012;DHT22;63444;48.148;11.542;2024-03-23T01:42:13;13.70;95.30
45012;DHT22;63444;48.148;11.542;2024-03-23T01:44:39;13.70;95.20
45012;DHT22;63444;48.148;11.542;2024-03-23T01:47:06;13.70;95.30
45012;DHT22;63444;48.148;11.542;2024-03-23T01:49:33;13.70;95.30
45012;DHT22;63444;48.148;11.542;2024-03-23T01:51:59;13.70;95.40
45012;DHT22;63444;48.148;11.542;2024-03-23T01:54:25;13.70;95.40
45012;DHT22;63444;48.148;11.542;2024-03-23T01:56:51;13.70;95.70
45012;DHT22;63444;48.148;11.542;2024-03-23T01:59:16;13.70;95.40
45012;DHT22;63444;48.148;11.542;2024-03-23T02:01:42;13.70;95.40
45012;DHT22;63444;48.148;11.542;2024-03-23T02:04:08;13.60;95.60
45012;DHT22;63444;48.148;11.542;2024-03-23T02:06:36;13.60;95.60
45012;DHT22;63444;48.148;11.542;2024-03-23T02:09:02;13.50;95.60
45012;DHT22;63444;48.148;11.542;2024-03-23T02:11:29;13.60;95.70
45012;DHT22;63444;48.148;11.542;2024-03-23T02:13:54;13.50;95.70
45012;DHT22;63444;48.148;11.542;2024-03-23T02:16:20;13.50;95.70
45012;DHT22;63444;48.148;11.542;2024-03-23T02:18:46;13.50;95.80
45012;DHT22;63444;48.148;11.542;2024-03-23T02:21:11;13.50;95.80
45012;DHT22;63444;48.148;11.542;2024-03-23T02:23:37;13.50;95.80
45012;DHT22;63444;48.148;11.542;2024-03-23T02:26:03;13.50;95.90
45012;DHT22;63444;48.148;11.542;2024-03-23T02:28:28;13.50;96.00
45012;DHT22;63444;48.148;11.542;2024-03-23T02:30:54;13.50;96.00
45012;DHT22;63444;48.148;11.542;2024-03-23T02:33:20;13.50;96.10
45012;DHT22;63444;48.148;11.542;2024-03-23T02:35:47;13.50;96.10
45012;DHT22;63444;48.148;11.542;2024-03-23T02:38:12;13.50;96.10
45012;DHT22;63444;48.148;11.542;2024-03-23T02:40:38;13.40;96.20
45012;DHT22;63444;48.148;11.542;2024-03-23T02:43:04;13.40;96.30
45012;DHT22;63444;48.148;11.542;2024-03-23T02:45:30;13.30;96.40
45012;DHT22;63444;48.148;11.542;2024-03-23T02:47:56;13.30;96.50
45012;DHT22;63444;48.148;11.542;2024-03-23T02:50:22;13.30;96.60
45012;DHT22;63444;48.148;11.542;2024-03-23T02:52:48;13.30;96.60
45012;DHT22;63444;48.148;11.542;2024-03-23T02:55:14;13.30;96.60
45012;DHT22;63444;48.148;11.542;2024-03-23T02:57:41;13.30;96.70
45012;DHT22;63444;48.148;11.542;2024-03-23T03:00:08;13.30;96.80
45012;DHT22;63444;48.148;11.542;2024-03-23T03:02:34;13.30;96.90
45012;DHT22;63444;48.148;11.542;2024-03-23T03:05:00;13.30;96.90
45012;DHT22;63444;48.148;11.542;2024-03-23T03:07:26;13.30;96.90
45012;DHT22;63444;48.148;11.542;2024-03-23T03:09:51;13.30;97.00
45012;DHT22;63444;48.148;11.542;2024-03-23T03:12:18;13.30;97.10
45012;DHT22;63444;48.148;11.542;2024-03-23T03:14:44;13.30;97.10
45012;DHT22;63444;48.148;11.542;2024-03-23T03:17:09;13.30;97.20
45012;DHT22;63444;48.148;11.542;2024-03-23T03:19:36;13.30;97.20
45012;DHT22;63444;48.148;11.542;2024-03-23T03:22:02;13.20;97.30
45012;DHT22;63444;48.148;11.542;2024-03-23T03:24:30;13.20;97.40
45012;DHT22;63444;48.148;11.542;2024-03-23T03:26:56;13.20;97.40
45012;DHT22;63444;48.148;11.542;2024-03-23T03:29:24;13.10;97.50
45012;DHT22;63444;48.148;11.542;2024-03-23T03:31:51;13.10;97.60
45012;DHT22;63444;48.148;11.542;2024-03-23T03:34:16;13.00;97.70
45012;DHT22;63444;48.148;11.542;2024-03-23T03:36:42;13.00;97.80
45012;DHT22;63444;48.148;11.542;2024-03-23T03:39:08;13.00;98.00
45012;DHT22;63444;48.148;11.542;2024-03-23T03:41:33;12.90;97.90
45012;DHT22;63444;48.148;11.542;2024-03-23T03:44:00;12.90;98.10
45012;DHT22;63444;48.148;11.542;2024-03-23T03:46:28;12.90;98.10
45012;DHT22;63444;48.148;11.542;2024-03-23T03:48:57;12.80;98.10
45012;DHT22;63444;48.148;11.542;2024-03-23T03:51:22;12.80;98.20
45012;DHT22;63444;48.148;11.542;2024-03-23T03:53:48;12.80;98.10
45012;DHT22;63444;48.148;11.542;2024-03-23T03:56:14;12.80;98.20
45012;DHT22;63444;48.148;11.542;2024-03-23T03:58:39;12.70;98.30
45012;DHT22;63444;48.148;11.542;2024-03-23T04:01:09;12.70;98.40
45012;DHT22;63444;48.148;11.542;2024-03-23T04:03:35;12.70;98.30
45012;DHT22;63444;48.148;11.542;2024-03-23T04:06:01;12.70;98.40
45012;DHT22;63444;48.148;11.542;2024-03-23T04:08:26;12.70;98.40
45012;DHT22;63444;48.148;11.542;2024-03-23T04:10:52;12.70;98.40
45012;DHT22;63444;48.148;11.542;2024-03-23T04:13:17;12.60;98.40
45012;DHT22;63444;48.148;11.542;2024-03-23T04:15:43;12.60;98.40
45012;DHT22;63444;48.148;11.542;2024-03-23T04:18:09;12.60;98.50
45012;DHT22;63444;48.148;11.542;2024-03-23T04:20:34;12.60;98.50
45012;DHT22;63444;48.148;11.542;2024-03-23T04:23:00;12.50;98.60
45012;DHT22;63444;48.148;11.542;2024-03-23T04:25:26;12.50;98.60
45012;DHT22;63444;48.148;11.542;2024-03-23T04:27:52;12.50;98.70
45012;DHT22;63444;48.148;11.542;2024-03-23T04:30:18;12.40;98.60
45012;DHT22;63444;48.148;11.542;2024-03-23T04:32:44;12.40;98.80
45012;DHT22;63444;48.148;11.542;2024-03-23T04:35:10;12.40;98.70
45012;DHT22;63444;48.148;11.542;2024-03-23T04:37:36;12.40;98.70
45012;DHT22;63444;48.148;11.542;2024-03-23T04:40:02;12.40;98.70
45012;DHT22;63444;48.148;11.542;2024-03-23T04:42:32;12.40;98.60
45012;DHT22;63444;48.148;11.542;2024-03-23T04:44:58;12.40;98.40
45012;DHT22;63444;48.148;11.542;2024-03-23T04:47:24;12.50;98.30
45012;DHT22;63444;48.148;11.542;2024-03-23T04:49:49;12.50;98.20
45012;DHT22;63444;48.148;11.542;2024-03-23T04:52:17;12.40;98.20
45012;DHT22;63444;48.148;11.542;2024-03-23T04:54:42;12.50;98.20
45012;DHT22;63444;48.148;11.542;2024-03-23T04:57:08;12.50;98.20
45012;DHT22;63444;48.148;11.542;2024-03-23T04:59:34;12.50;98.10
45012;DHT22;63444;48.148;11.542;2024-03-23T05:02:07;12.50;98.10
45012;DHT22;63444;48.148;11.542;2024-03-23T05:04:32;12.50;97.90
45012;DHT22;63444;48.148;11.542;2024-03-23T05:06:58;12.50;97.80
45012;DHT22;63444;48.148;11.542;2024-03-23T05:09:24;12.50;97.80
45012;DHT22;63444;48.148;11.542;2024-03-23T05:11:50;12.50;97.70
45012;DHT22;63444;48.148;11.542;2024-03-23T05:14:16;12.60;97.80
45012;DHT22;63444;48.148;11.542;2024-03-23T05:16:41;12.60;97.80
45012;DHT22;63444;48.148;11.542;2024-03-23T05:19:07;12.60;97.70
45012;DHT22;63444;48.148;11.542;2024-03-23T05:21:33;12.70;97.70
45012;DHT22;63444;48.148;11.542;2024-03-23T05:23:59;12.60;97.50
45012;DHT22;63444;48.148;11.542;2024-03-23T05:26:25;12.70;97.90
45012;DHT22;63444;48.148;11.542;2024-03-23T05:28:50;12.70;97.50
45012;DHT22;63444;48.148;11.542;2024-03-23T05:31:26;12.70;97.40
45012;DHT22;63444;48.148;11.542;2024-03-23T05:33:52;12.70;97.40
45012;DHT22;63444;48.148;11.542;2024-03-23T05:36:18;12.70;97.30
45012;DHT22;63444;48.148;11.542;2024-03-23T05:38:44;12.70;97.30
45012;DHT22;63444;48.148;11.542;2024-03-23T05:41:10;12.80;97.40
45012;DHT22;63444;48.148;11.542;2024-03-23T05:43:35;12.80;97.40
45012;DHT22;63444;48.148;11.542;2024-03-23T05:46:01;12.80;97.50
45012;DHT22;63444;48.148;11.542;2024-03-23T05:48:27;12.90;97.60
45012;DHT22;63444;48.148;11.542;2024-03-23T05:50:54;12.80;97.60
45012;DHT22;63444;48.148;11.542;2024-03-23T05:53:20;12.80;97.60
45012;DHT22;63444;48.148;11.542;2024-03-23T05:55:49;12.90;97.70
45012;DHT22;63444;48.148;11.542;2024-03-23T05:58:15;12.90;97.70
45012;DHT22;63444;48.148;11.542;2024-03-23T06:00:42;12.90;97.70
45012;DHT22;63444;48.148;11.542;2024-03-23T06:03:08;12.90;97.80
45012;DHT22;63444;48.148;11.542;2024-03-23T06:05:34;12.90;97.70
45012;DHT22;63444;48.148;11.542;2024-03-23T06:08:00;12.90;97.80
45012;DHT22;63444;48.148;11.542;2024-03-23T06:10:25;13.00;97.80
45012;DHT22;63444;48.148;11.542;2024-03-23T06:12:51;13.10;97.30
45012;DHT22;63444;48.148;11.542;2024-03-23T06:15:20;13.20;97.30
45012;DHT22;63444;48.148;11.542;2024-03-23T06:17:46;13.20;97.10
45012;DHT22;63444;48.148;11.542;2024-03-23T06:20:12;13.30;97.10
45012;DHT22;63444;48.148;11.542;2024-03-23T06:22:38;13.40;97.10
45012;DHT22;63444;48.148;11.542;2024-03-23T06:25:05;13.50;97.00
45012;DHT22;63444;48.148;11.542;2024-03-23T06:27:31;13.60;96.90
45012;DHT22;63444;48.148;11.542;2024-03-23T06:29:58;13.70;97.10
45012;DHT22;63444;48.148;11.542;2024-03-23T06:32:24;13.80;96.70
45012;DHT22;63444;48.148;11.542;2024-03-23T06:34:50;13.80;96.20
45012;DHT22;63444;48.148;11.542;2024-03-23T06:37:16;13.90;96.10
45012;DHT22;63444;48.148;11.542;2024-03-23T06:39:41;14.00;96.00
45012;DHT22;63444;48.148;11.542;2024-03-23T06:42:07;14.00;95.80
45012;DHT22;63444;48.148;11.542;2024-03-23T06:44:33;14.10;95.80
45012;DHT22;63444;48.148;11.542;2024-03-23T06:46:59;14.10;95.80
45012;DHT22;63444;48.148;11.542;2024-03-23T06:49:26;14.20;95.70
45012;DHT22;63444;48.148;11.542;2024-03-23T06:51:51;14.30;95.50
45012;DHT22;63444;48.148;11.542;2024-03-23T06:54:18;14.40;95.70
45012;DHT22;63444;48.148;11.542;2024-03-23T06:56:44;14.50;95.60
45012;DHT22;63444;48.148;11.542;2024-03-23T06:59:10;14.60;95.70
45012;DHT22;63444;48.148;11.542;2024-03-23T07:01:36;14.80;95.60
45012;DHT22;63444;48.148;11.542;2024-03-23T07:04:02;14.90;95.70
45012;DHT22;63444;48.148;11.542;2024-03-23T07:06:29;15.20;95.60
45012;DHT22;63444;48.148;11.542;2024-03-23T07:08:55;15.40;95.60
45012;DHT22;63444;48.148;11.542;2024-03-23T07:11:22;15.60;95.60
45012;DHT22;63444;48.148;11.542;2024-03-23T07:13:50;15.70;95.60
45012;DHT22;63444;48.148;11.542;2024-03-23T07:16:16;15.70;95.60
45012;DHT22;63444;48.148;11.542;2024-03-23T07:18:42;15.70;95.50
45012;DHT22;63444;48.148;11.542;2024-03-23T07:21:07;15.70;95.40
45012;DHT22;63444;48.148;11.542;2024-03-23T07:23:33;15.70;95.40
45012;DHT22;63444;48.148;11.542;2024-03-23T07:26:03;15.70;95.50
45012;DHT22;63444;48.148;11.542;2024-03-23T07:28:33;15.70;95.60
45012;DHT22;63444;48.148;11.542;2024-03-23T07:31:07;15.70;95.60
45012;DHT22;63444;48.148;11.542;2024-03-23T07:33:38;15.70;95.60
45012;DHT22;63444;48.148;11.542;2024-03-23T07:36:06;15.70;95.60
45012;DHT22;63444;48.148;11.542;2024-03-23T07:38:34;15.70;95.60
45012;DHT22;63444;48.148;11.542;2024-03-23T07:43:29;15.60;97.20
45012;DHT22;63444;48.148;11.542;2024-03-23T07:45:54;15.40;98.20
45012;DHT22;63444;48.148;11.542;2024-03-23T07:48:22;15.20;99.60
45012;DHT22;63444;48.148;11.542;2024-03-23T07:51:00;14.90;99.90
45012;DHT22;63444;48.148;11.542;2024-03-23T07:53:27;14.60;99.90
45012;DHT22;63444;48.148;11.542;2024-03-23T07:56:07;14.50;99.90
45012;DHT22;63444;48.148;11.542;2024-03-23T07:58:34;14.20;99.90
45012;DHT22;63444;48.148;11.542;2024-03-23T08:03:36;13.90;99.90
45012;DHT22;63444;48.148;11.542;2024-03-23T08:08:37;13.60;99.90
45012;DHT22;63444;48.148;11.542;2024-03-23T08:11:04;13.40;99.90
45012;DHT22;63444;48.148;11.542;2024-03-23T08:13:30;13.30;99.90
45012;DHT22;63444;48.148;11.542;2024-03-23T08:16:00;13.10;99.90
45012;DHT22;63444;48.148;11.542;2024-03-23T08:18:26;12.90;99.90
45012;DHT22;63444;48.148;11.542;2024-03-23T08:21:02;12.80;99.90
45012;DHT22;63444;48.148;11.542;2024-03-23T08:23:33;12.60;99.90
45012;DHT22;63444;48.148;11.542;2024-03-23T08:26:04;12.50;99.90
45012;DHT22;63444;48.148;11.542;2024-03-23T08:28:30;12.40;99.90
45012;DHT22;63444;48.148;11.542;2024-03-23T08:30:56;12.20;99.90
45012;DHT22;63444;48.148;11.542;2024-03-23T08:33:23;12.10;99.90
45012;DHT22;63444;48.148;11.542;2024-03-23T08:36:00;12.00;99.90
45012;DHT22;63444;48.148;11.542;2024-03-23T08:38:26;11.80;99.90
45012;DHT22;63444;48.148;11.542;2024-03-23T08:41:06;11.50;99.90
45012;DHT22;63444;48.148;11.542;2024-03-23T08:43:41;11.40;99.90
45012;DHT22;63444;48.148;11.542;2024-03-23T08:46:12;11.40;99.90
45012;DHT22;63444;48.148;11.542;2024-03-23T08:48:39;11.20;99.90
45012;DHT22;63444;48.148;11.542;2024-03-23T08:51:07;11.10;99.90
45012;DHT22;63444;48.148;11.542;2024-03-23T08:53:34;11.10;99.90
45012;DHT22;63444;48.148;11.542;2024-03-23T08:56:00;10.90;99.90
45012;DHT22;63444;48.148;11.542;2024-03-23T08:58:27;10.80;99.90
45012;DHT22;63444;48.148;11.542;2024-03-23T09:00:55;10.80;99.90
45012;DHT22;63444;48.148;11.542;2024-03-23T09:03:25;10.80;99.90
45012;DHT22;63444;48.148;11.542;2024-03-23T09:05:51;10.90;99.90
45012;DHT22;63444;48.148;11.542;2024-03-23T09:08:18;10.90;99.90
45012;DHT22;63444;48.148;11.542;2024-03-23T09:10:44;10.80;99.90
45012;DHT22;63444;48.148;11.542;2024-03-23T09:13:09;10.70;99.90
45012;DHT22;63444;48.148;11.542;2024-03-23T09:15:37;10.70;99.90
45012;DHT22;63444;48.148;11.542;2024-03-23T09:18:03;10.70;99.90
45012;DHT22;63444;48.148;11.542;2024-03-23T09:20:32;10.60;99.90
45012;DHT22;63444;48.148;11.542;2024-03-23T09:22:58;10.60;99.90
45012;DHT22;63444;48.148;11.542;2024-03-23T09:25:24;10.70;99.90
45012;DHT22;63444;48.148;11.542;2024-03-23T09:27:50;10.70;99.90
45012;DHT22;63444;48.148;11.542;2024-03-23T09:30:16;10.70;99.90
45012;DHT22;63444;48.148;11.542;2024-03-23T09:32:45;10.80;99.90
45012;DHT22;63444;48.148;11.542;2024-03-23T09:35:11;10.70;99.90
45012;DHT22;63444;48.148;11.542;2024-03-23T09:37:40;10.80;99.90
45012;DHT22;63444;48.148;11.542;2024-03-23T09:40:13;10.80;99.90
45012;DHT22;63444;48.148;11.542;2024-03-23T09:42:40;10.70;99.90
45012;DHT22;63444;48.148;11.542;2024-03-23T09:45:17;10.50;99.90
45012;DHT22;63444;48.148;11.542;2024-03-23T09:47:44;10.50;99.90
45012;DHT22;63444;48.148;11.542;2024-03-23T09:50:13;10.40;99.90
45012;DHT22;63444;48.148;11.542;2024-03-23T09:52:39;10.40;99.90
45012;DHT22;63444;48.148;11.542;2024-03-23T09:55:05;10.30;99.90
45012;DHT22;63444;48.148;11.542;2024-03-23T09:57:30;10.20;99.90
45012;DHT22;63444;48.148;11.542;2024-03-23T09:59:59;10.10;99.90
45012;DHT22;63444;48.148;11.542;2024-03-23T10:02:26;9.90;99.90
45012;DHT22;63444;48.148;11.542;2024-03-23T10:04:51;9.90;99.90
45012;DHT22;63444;48.148;11.542;2024-03-23T10:07:21;9.80;99.90
45012;DHT22;63444;48.148;11.542;2024-03-23T10:09:51;9.70;99.90
45012;DHT22;63444;48.148;11.542;2024-03-23T10:12:19;9.60;99.90
45012;DHT22;63444;48.148;11.542;2024-03-23T10:14:46;9.60;99.90
45012;DHT22;63444;48.148;11.542;2024-03-23T10:17:22;9.60;99.90
45012;DHT22;63444;48.148;11.542;2024-03-23T10:19:51;9.50;99.90
45012;DHT22;63444;48.148;11.542;2024-03-23T10:22:24;9.50;99.90
45012;DHT22;63444;48.148;11.542;2024-03-23T10:24:50;9.40;99.90
45012;DHT22;63444;48.148;11.542;2024-03-23T10:27:18;9.50;99.90
45012;DHT22;63444;48.148;11.542;2024-03-23T10:29:46;9.60;99.90
45012;DHT22;63444;48.148;11.542;2024-03-23T10:32:13;9.70;99.90
45012;DHT22;63444;48.148;11.542;2024-03-23T10:34:39;9.70;99.90
45012;DHT22;63444;48.148;11.542;2024-03-23T10:37:06;9.60;99.90
45012;DHT22;63444;48.148;11.542;2024-03-23T10:39:42;9.70;99.90
45012;DHT22;63444;48.148;11.542;2024-03-23T10:42:09;9.70;99.90
45012;DHT22;63444;48.148;11.542;2024-03-23T10:44:37;9.70;99.90
45012;DHT22;63444;48.148;11.542;2024-03-23T10:47:04;9.60;99.90
45012;DHT22;63444;48.148;11.542;2024-03-23T10:49:32;9.60;99.90
45012;DHT22;63444;48.148;11.542;2024-03-23T10:52:05;9.60;99.90
45012;DHT22;63444;48.148;11.542;2024-03-23T10:54:31;9.60;99.90
45012;DHT22;63444;48.148;11.542;2024-03-23T10:57:08;9.50;99.90
45012;DHT22;63444;48.148;11.542;2024-03-23T10:59:37;9.30;99.90
45012;DHT22;63444;48.148;11.542;2024-03-23T11:02:03;9.30;99.90
45012;DHT22;63444;48.148;11.542;2024-03-23T11:04:39;9.30;99.90
45012;DHT22;63444;48.148;11.542;2024-03-23T11:09:49;9.30;99.90
45012;DHT22;63444;48.148;11.542;2024-03-23T11:14:59;9.40;99.90
45012;DHT22;63444;48.148;11.542;2024-03-23T11:17:26;9.50;99.90
45012;DHT22;63444;48.148;11.542;2024-03-23T11:22:37;9.50;99.90
45012;DHT22;63444;48.148;11.542;2024-03-23T11:25:24;9.40;99.90
45012;DHT22;63444;48.148;11.542;2024-03-23T11:27:51;9.40;99.90
45012;DHT22;63444;48.148;11.542;2024-03-23T11:30:25;9.40;99.90
45012;DHT22;63444;48.148;11.542;2024-03-23T11:32:54;9.40;99.90
45012;DHT22;63444;48.148;11.542;2024-03-23T11:35:39;9.50;99.90
45012;DHT22;63444;48.148;11.542;2024-03-23T11:38:15;9.50;99.90
45012;DHT22;63444;48.148;11.542;2024-03-23T11:40:42;9.40;99.90
45012;DHT22;63444;48.148;11.542;2024-03-23T11:43:12;9.40;99.90
45012;DHT22;63444;48.148;11.542;2024-03-23T11:46:00;9.50;99.90
45012;DHT22;63444;48.148;11.542;2024-03-23T11:48:28;9.50;99.90
45012;DHT22;63444;48.148;11.542;2024-03-23T11:50:56;9.60;99.90
45012;DHT22;63444;48.148;11.542;2024-03-23T11:53:25;9.50;99.90
45012;DHT22;63444;48.148;11.542;2024-03-23T11:55:56;9.60;99.90
45012;DHT22;63444;48.148;11.542;2024-03-23T11:58:24;9.70;99.90
45012;DHT22;63444;48.148;11.542;2024-03-23T12:00:59;9.60;99.90
45012;DHT22;63444;48.148;11.542;2024-03-23T12:03:26;9.80;99.90
45012;DHT22;63444;48.148;11.542;2024-03-23T12:06:00;9.90;99.90
45012;DHT22;63444;48.148;11.542;2024-03-23T12:08:34;9.80;99.90
45012;DHT22;63444;48.148;11.542;2024-03-23T12:11:14;9.90;99.90
45012;DHT22;63444;48.148;11.542;2024-03-23T12:13:41;9.80;99.90
45012;DHT22;63444;48.148;11.542;2024-03-23T12:16:19;9.80;99.90
45012;DHT22;63444;48.148;11.542;2024-03-23T12:18:49;9.70;99.90
45012;DHT22;63444;48.148;11.542;2024-03-23T12:21:16;9.60;99.90
45012;DHT22;63444;48.148;11.542;2024-03-23T12:23:43;9.70;99.90
45012;DHT22;63444;48.148;11.542;2024-03-23T12:26:10;9.70;99.90
45012;DHT22;63444;48.148;11.542;2024-03-23T12:28:37;9.80;99.90
45012;DHT22;63444;48.148;11.542;2024-03-23T12:31:05;9.80;99.90
45012;DHT22;63444;48.148;11.542;2024-03-23T12:33:31;9.80;99.90
45012;DHT22;63444;48.148;11.542;2024-03-23T12:35:56;9.80;99.90
45012;DHT22;63444;48.148;11.542;2024-03-23T12:38:22;9.80;99.90
45012;DHT22;63444;48.148;11.542;2024-03-23T12:40:49;9.80;99.90
45012;DHT22;63444;48.148;11.542;2024-03-23T12:43:15;9.80;99.90
45012;DHT22;63444;48.148;11.542;2024-03-23T12:45:45;9.80;99.90
45012;DHT22;63444;48.148;11.542;2024-03-23T12:48:11;9.80;99.90
45012;DHT22;63444;48.148;11.542;2024-03-23T12:50:37;9.90;99.90
45012;DHT22;63444;48.148;11.542;2024-03-23T12:53:03;10.00;99.90
45012;DHT22;63444;48.148;11.542;2024-03-23T12:55:29;10.00;99.90
45012;DHT22;63444;48.148;11.542;2024-03-23T12:57:54;10.10;99.90
45012;DHT22;63444;48.148;11.542;2024-03-23T13:00:20;10.10;99.90
45012;DHT22;63444;48.148;11.542;2024-03-23T13:02:46;10.10;99.90
45012;DHT22;63444;48.148;11.542;2024-03-23T13:05:11;10.20;99.90
45012;DHT22;63444;48.148;11.542;2024-03-23T13:07:37;10.30;99.90
45012;DHT22;63444;48.148;11.542;2024-03-23T13:10:04;10.30;99.90
45012;DHT22;63444;48.148;11.542;2024-03-23T13:12:31;10.40;99.90
45012;DHT22;63444;48.148;11.542;2024-03-23T13:14:58;10.30;99.90
45012;DHT22;63444;48.148;11.542;2024-03-23T13:17:25;10.30;99.90
45012;DHT22;63444;48.148;11.542;2024-03-23T13:19:52;10.40;99.90
45012;DHT22;63444;48.148;11.542;2024-03-23T13:22:18;10.40;99.90
45012;DHT22;63444;48.148;11.542;2024-03-23T13:24:44;10.40;99.90
45012;DHT22;63444;48.148;11.542;2024-03-23T13:27:10;10.40;99.90
45012;DHT22;63444;48.148;11.542;2024-03-23T13:29:36;10.40;99.90
45012;DHT22;63444;48.148;11.542;2024-03-23T13:32:05;10.30;99.90
45012;DHT22;63444;48.148;11.542;2024-03-23T13:34:31;10.20;99.90
45012;DHT22;63444;48.148;11.542;2024-03-23T13:36:59;10.20;99.90
45012;DHT22;63444;48.148;11.542;2024-03-23T13:39:25;10.30;99.90
45012;DHT22;63444;48.148;11.542;2024-03-23T13:41:53;10.30;99.90
45012;DHT22;63444;48.148;11.542;2024-03-23T13:44:20;10.30;99.90
45012;DHT22;63444;48.148;11.542;2024-03-23T13:46:45;10.30;99.90
45012;DHT22;63444;48.148;11.542;2024-03-23T13:49:32;10.30;99.90
45012;DHT22;63444;48.148;11.542;2024-03-23T13:51:59;10.30;99.90
45012;DHT22;63444;48.148;11.542;2024-03-23T13:54:26;10.40;99.90
45012;DHT22;63444;48.148;11.542;2024-03-23T13:56:54;10.20;99.90
45012;DHT22;63444;48.148;11.542;2024-03-23T13:59:24;9.90;99.90
45012;DHT22;63444;48.148;11.542;2024-03-23T14:01:50;9.70;99.90
45012;DHT22;63444;48.148;11.542;2024-03-23T14:04:16;9.30;99.90
45012;DHT22;63444;48.148;11.542;2024-03-23T14:06:43;9.00;99.90
45012;DHT22;63444;48.148;11.542;2024-03-23T14:09:11;8.70;99.90
45012;DHT22;63444;48.148;11.542;2024-03-23T14:11:37;8.70;99.90
45012;DHT22;63444;48.148;11.542;2024-03-23T14:14:03;8.70;99.90
45012;DHT22;63444;48.148;11.542;2024-03-23T14:16:32;8.70;99.90
45012;DHT22;63444;48.148;11.542;2024-03-23T14:18:59;8.70;99.90
45012;DHT22;63444;48.148;11.542;2024-03-23T14:21:25;8.60;99.90
45012;DHT22;63444;48.148;11.542;2024-03-23T14:23:52;8.70;99.90
45012;DHT22;63444;48.148;11.542;2024-03-23T14:26:19;8.70;99.90
45012;DHT22;63444;48.148;11.542;2024-03-23T14:28:45;8.70;99.90
45012;DHT22;63444;48.148;11.542;2024-03-23T14:31:11;8.70;99.90
45012;DHT22;63444;48.148;11.542;2024-03-23T14:33:37;8.80;99.90
45012;DHT22;63444;48.148;11.542;2024-03-23T14:36:04;8.70;99.90
45012;DHT22;63444;48.148;11.542;2024-03-23T14:38:30;8.80;99.90
45012;DHT22;63444;48.148;11.542;2024-03-23T14:41:00;8.80;99.90
45012;DHT22;63444;48.148;11.542;2024-03-23T14:43:26;8.80;99.90
45012;DHT22;63444;48.148;11.542;2024-03-23T14:46:11;8.80;99.90
45012;DHT22;63444;48.148;11.542;2024-03-23T14:48:38;8.80;99.90
45012;DHT22;63444;48.148;11.542;2024-03-23T14:51:05;8.70;99.90
45012;DHT22;63444;48.148;11.542;2024-03-23T14:53:41;8.60;99.90
45012;DHT22;63444;48.148;11.542;2024-03-23T14:56:10;8.60;99.90
45012;DHT22;63444;48.148;11.542;2024-03-23T14:58:38;8.80;99.90
45012;DHT22;63444;48.148;11.542;2024-03-23T15:01:06;8.90;99.90
45012;DHT22;63444;48.148;11.542;2024-03-23T15:03:35;8.90;99.90
45012;DHT22;63444;48.148;11.542;2024-03-23T15:06:01;8.90;99.90
45012;DHT22;63444;48.148;11.542;2024-03-23T15:08:28;8.80;99.90
45012;DHT22;63444;48.148;11.542;2024-03-23T15:10:53;8.70;99.90
45012;DHT22;63444;48.148;11.542;2024-03-23T15:13:19;8.60;99.90
45012;DHT22;63444;48.148;11.542;2024-03-23T15:15:48;8.50;99.90
45012;DHT22;63444;48.148;11.542;2024-03-23T15:18:14;8.50;99.90
45012;DHT22;63444;48.148;11.542;2024-03-23T15:20:54;8.30;99.90
45012;DHT22;63444;48.148;11.542;2024-03-23T15:23:20;7.70;99.90
45012;DHT22;63444;48.148;11.542;2024-03-23T15:25:46;8.20;99.90
45012;DHT22;63444;48.148;11.542;2024-03-23T15:28:13;8.00;99.90
45012;DHT22;63444;48.148;11.542;2024-03-23T15:30:39;8.00;99.90
45012;DHT22;63444;48.148;11.542;2024-03-23T15:33:04;8.00;99.90
45012;DHT22;63444;48.148;11.542;2024-03-23T15:35:31;8.00;99.90
45012;DHT22;63444;48.148;11.542;2024-03-23T15:37:57;8.00;99.90
45012;DHT22;63444;48.148;11.542;2024-03-23T15:40:23;8.00;99.90
45012;DHT22;63444;48.148;11.542;2024-03-23T15:42:50;8.00;99.90
45012;DHT22;63444;48.148;11.542;2024-03-23T15:45:16;8.10;99.90
45012;DHT22;63444;48.148;11.542;2024-03-23T15:47:41;8.10;99.90
45012;DHT22;63444;48.148;11.542;2024-03-23T15:50:07;8.10;99.90
45012;DHT22;63444;48.148;11.542;2024-03-23T15:52:36;8.10;99.90
45012;DHT22;63444;48.148;11.542;2024-03-23T15:55:05;8.20;99.90
45012;DHT22;63444;48.148;11.542;2024-03-23T15:57:34;8.20;99.90
45012;DHT22;63444;48.148;11.542;2024-03-23T16:00:04;8.30;99.90
45012;DHT22;63444;48.148;11.542;2024-03-23T16:02:29;8.30;99.90
45012;DHT22;63444;48.148;11.542;2024-03-23T16:04:58;8.30;99.90
45012;DHT22;63444;48.148;11.542;2024-03-23T16:07:28;8.30;99.90
45012;DHT22;63444;48.148;11.542;2024-03-23T16:09:54;8.40;99.90
45012;DHT22;63444;48.148;11.542;2024-03-23T16:12:19;8.40;99.90
45012;DHT22;63444;48.148;11.542;2024-03-23T16:14:46;8.40;99.90
45012;DHT22;63444;48.148;11.542;2024-03-23T16:17:12;8.40;99.90
45012;DHT22;63444;48.148;11.542;2024-03-23T16:19:37;8.40;99.90
45012;DHT22;63444;48.148;11.542;2024-03-23T16:22:03;8.30;99.90
45012;DHT22;63444;48.148;11.542;2024-03-23T16:24:29;8.30;99.90
45012;DHT22;63444;48.148;11.542;2024-03-23T16:26:54;8.40;99.90
45012;DHT22;63444;48.148;11.542;2024-03-23T16:29:20;8.40;99.90